CheckWX is a tool to help pilots better visualize weather data.  It is not intended as a substitute for an official pre-flight weather briefing.

04:55:54 UTC

ENTO METAR
Sandefjord Torp Airport
Torp, Norway
Current

36 mins ago

ENTO 260420Z 16003KT 0150 R18/0400N R36/0500N FG VV003 14/14 Q1023 TEMPO 0400 FG VV001
Observed
Aug-26 @ 04:20 UTC
Wind
  • 160° at 3 KTS
Visibility
100 meters
Flight Rules
LIFR
Conditions
Fog
Cloud Levels
  • Vertical visibility at 300' AGL
Temperature
14°C / 57°F
Dewpoint
14°C / 57°F
Humidity
100%
Altimeter
30.21" Hg
Pressure
1022.92 hPa
Previous

1 hour ago

ENTO 260350Z 18003KT 9999 MIFG NSC 14/14 Q1023
Observed
Aug-26 @ 03:50 UTC
Wind
  • 180° at 3 KTS
Visibility
10,000+ meters
Flight Rules
VFR
Conditions
Shallow Fog
Cloud Levels
  • Clear skies
Temperature
14°C / 57°F
Dewpoint
14°C / 57°F
Humidity
100%
Altimeter
30.21" Hg
Pressure
1022.92 hPa
Previous

2 hours ago

ENTO 260320Z AUTO 18003KT 0200 R18/P2000D R36/P2000N NCD 14/14 Q1023
Observed
Aug-26 @ 03:20 UTC
Wind
  • 180° at 3 KTS
Visibility
200 meters
Flight Rules
LIFR
Cloud Levels
  • Clear skies
Temperature
14°C / 57°F
Dewpoint
14°C / 57°F
Humidity
100%
Altimeter
30.21" Hg
Pressure
1022.92 hPa